sensor_id;sensor_type;location;lat;lon;timestamp;P1;durP1;ratioP1;P2;durP2;ratioP2
846;SDS011;410;48.954;9.474;2023-07-13T00:00:28;2.30;;;1.60;;
846;SDS011;410;48.954;9.474;2023-07-13T00:02:32;2.60;;;2.03;;
846;SDS011;410;48.954;9.474;2023-07-13T00:04:35;3.10;;;1.70;;
846;SDS011;410;48.954;9.474;2023-07-13T00:06:37;2.33;;;1.50;;
846;SDS011;410;48.954;9.474;2023-07-13T00:08:42;2.17;;;1.67;;
846;SDS011;410;48.954;9.474;2023-07-13T00:10:45;1.80;;;1.50;;
846;SDS011;410;48.954;9.474;2023-07-13T00:12:50;2.40;;;1.70;;
846;SDS011;410;48.954;9.474;2023-07-13T00:14:56;2.40;;;1.63;;
846;SDS011;410;48.954;9.474;2023-07-13T00:17:00;2.30;;;1.57;;
846;SDS011;410;48.954;9.474;2023-07-13T00:19:03;2.67;;;1.73;;
846;SDS011;410;48.954;9.474;2023-07-13T00:21:07;3.40;;;1.40;;
846;SDS011;410;48.954;9.474;2023-07-13T00:23:10;2.70;;;1.70;;
846;SDS011;410;48.954;9.474;2023-07-13T00:25:15;2.57;;;1.60;;
846;SDS011;410;48.954;9.474;2023-07-13T00:27:19;3.43;;;1.50;;
846;SDS011;410;48.954;9.474;2023-07-13T00:29:22;3.60;;;1.60;;
846;SDS011;410;48.954;9.474;2023-07-13T00:31:25;2.00;;;1.50;;
846;SDS011;410;48.954;9.474;2023-07-13T00:33:28;2.77;;;1.60;;
846;SDS011;410;48.954;9.474;2023-07-13T00:35:34;4.20;;;1.80;;
846;SDS011;410;48.954;9.474;2023-07-13T00:37:37;3.13;;;2.00;;
846;SDS011;410;48.954;9.474;2023-07-13T00:39:41;2.37;;;1.70;;
846;SDS011;410;48.954;9.474;2023-07-13T00:41:45;3.40;;;2.03;;
846;SDS011;410;48.954;9.474;2023-07-13T00:43:48;2.10;;;1.40;;
846;SDS011;410;48.954;9.474;2023-07-13T00:48:29;2.10;;;1.37;;
846;SDS011;410;48.954;9.474;2023-07-13T00:50:36;2.83;;;1.50;;
846;SDS011;410;48.954;9.474;2023-07-13T00:52:40;2.97;;;1.87;;
846;SDS011;410;48.954;9.474;2023-07-13T00:54:46;3.30;;;1.63;;
846;SDS011;410;48.954;9.474;2023-07-13T00:56:51;7.60;;;3.70;;
846;SDS011;410;48.954;9.474;2023-07-13T00:58:56;9.80;;;2.60;;
846;SDS011;410;48.954;9.474;2023-07-13T01:01:00;2.57;;;1.80;;
846;SDS011;410;48.954;9.474;2023-07-13T01:03:04;1.80;;;1.40;;
846;SDS011;410;48.954;9.474;2023-07-13T01:05:08;2.90;;;1.63;;
846;SDS011;410;48.954;9.474;2023-07-13T01:07:12;3.80;;;1.57;;
846;SDS011;410;48.954;9.474;2023-07-13T01:09:16;4.00;;;1.53;;
846;SDS011;410;48.954;9.474;2023-07-13T01:11:19;4.73;;;1.57;;
846;SDS011;410;48.954;9.474;2023-07-13T01:13:25;2.37;;;1.47;;
846;SDS011;410;48.954;9.474;2023-07-13T01:15:35;2.77;;;1.83;;
846;SDS011;410;48.954;9.474;2023-07-13T01:17:40;2.33;;;1.50;;
846;SDS011;410;48.954;9.474;2023-07-13T01:19:45;3.73;;;1.50;;
846;SDS011;410;48.954;9.474;2023-07-13T01:21:51;2.77;;;1.70;;
846;SDS011;410;48.954;9.474;2023-07-13T01:23:55;1.80;;;1.50;;
846;SDS011;410;48.954;9.474;2023-07-13T01:25:58;2.30;;;1.77;;
846;SDS011;410;48.954;9.474;2023-07-13T01:28:02;4.23;;;1.60;;
846;SDS011;410;48.954;9.474;2023-07-13T01:30:06;2.80;;;1.90;;
846;SDS011;410;48.954;9.474;2023-07-13T01:32:10;2.87;;;1.73;;
846;SDS011;410;48.954;9.474;2023-07-13T01:34:15;3.10;;;1.70;;
846;SDS011;410;48.954;9.474;2023-07-13T01:36:18;3.30;;;1.50;;
846;SDS011;410;48.954;9.474;2023-07-13T01:38:24;3.00;;;1.80;;
846;SDS011;410;48.954;9.474;2023-07-13T01:40:27;1.90;;;1.40;;
846;SDS011;410;48.954;9.474;2023-07-13T01:42:31;2.10;;;1.57;;
846;SDS011;410;48.954;9.474;2023-07-13T01:44:34;3.50;;;1.70;;
846;SDS011;410;48.954;9.474;2023-07-13T01:46:38;2.13;;;1.83;;
846;SDS011;410;48.954;9.474;2023-07-13T01:48:41;2.63;;;1.83;;
846;SDS011;410;48.954;9.474;2023-07-13T01:50:44;3.83;;;1.97;;
846;SDS011;410;48.954;9.474;2023-07-13T01:52:48;2.77;;;1.83;;
846;SDS011;410;48.954;9.474;2023-07-13T01:54:53;2.67;;;1.77;;
846;SDS011;410;48.954;9.474;2023-07-13T01:56:56;2.67;;;1.50;;
846;SDS011;410;48.954;9.474;2023-07-13T01:58:59;3.17;;;1.73;;
846;SDS011;410;48.954;9.474;2023-07-13T02:01:03;3.53;;;1.80;;
846;SDS011;410;48.954;9.474;2023-07-13T02:03:06;2.07;;;1.70;;
846;SDS011;410;48.954;9.474;2023-07-13T02:05:09;2.07;;;1.70;;
846;SDS011;410;48.954;9.474;2023-07-13T02:07:13;3.30;;;1.57;;
846;SDS011;410;48.954;9.474;2023-07-13T02:09:16;2.40;;;1.70;;
846;SDS011;410;48.954;9.474;2023-07-13T02:11:21;2.40;;;1.37;;
846;SDS011;410;48.954;9.474;2023-07-13T02:13:24;2.67;;;1.80;;
846;SDS011;410;48.954;9.474;2023-07-13T02:15:27;3.53;;;1.90;;
846;SDS011;410;48.954;9.474;2023-07-13T02:17:31;4.70;;;1.80;;
846;SDS011;410;48.954;9.474;2023-07-13T02:19:33;2.87;;;1.90;;
846;SDS011;410;48.954;9.474;2023-07-13T02:21:37;2.17;;;1.57;;
846;SDS011;410;48.954;9.474;2023-07-13T02:23:40;2.73;;;1.60;;
846;SDS011;410;48.954;9.474;2023-07-13T02:25:43;3.60;;;1.53;;
846;SDS011;410;48.954;9.474;2023-07-13T02:27:47;4.17;;;2.20;;
846;SDS011;410;48.954;9.474;2023-07-13T02:29:51;3.00;;;1.93;;
846;SDS011;410;48.954;9.474;2023-07-13T02:31:55;2.70;;;1.80;;
846;SDS011;410;48.954;9.474;2023-07-13T02:33:59;2.73;;;2.00;;
846;SDS011;410;48.954;9.474;2023-07-13T02:36:02;2.63;;;1.90;;
846;SDS011;410;48.954;9.474;2023-07-13T02:38:07;2.10;;;1.70;;
846;SDS011;410;48.954;9.474;2023-07-13T02:40:10;2.60;;;1.80;;
846;SDS011;410;48.954;9.474;2023-07-13T02:42:13;2.30;;;1.37;;
846;SDS011;410;48.954;9.474;2023-07-13T02:44:20;2.47;;;1.77;;
846;SDS011;410;48.954;9.474;2023-07-13T02:46:23;3.10;;;1.60;;
846;SDS011;410;48.954;9.474;2023-07-13T02:48:30;5.33;;;1.73;;
846;SDS011;410;48.954;9.474;2023-07-13T02:50:33;2.40;;;1.83;;
846;SDS011;410;48.954;9.474;2023-07-13T02:52:36;4.30;;;2.00;;
846;SDS011;410;48.954;9.474;2023-07-13T02:54:39;5.03;;;1.70;;
846;SDS011;410;48.954;9.474;2023-07-13T02:56:41;2.60;;;1.60;;
846;SDS011;410;48.954;9.474;2023-07-13T02:58:45;3.20;;;2.10;;
846;SDS011;410;48.954;9.474;2023-07-13T03:00:51;2.73;;;2.00;;
846;SDS011;410;48.954;9.474;2023-07-13T03:02:55;2.53;;;1.57;;
846;SDS011;410;48.954;9.474;2023-07-13T03:05:00;3.63;;;1.70;;
846;SDS011;410;48.954;9.474;2023-07-13T03:07:04;3.30;;;1.70;;
846;SDS011;410;48.954;9.474;2023-07-13T03:09:11;3.93;;;2.27;;
846;SDS011;410;48.954;9.474;2023-07-13T03:11:18;2.70;;;1.63;;
846;SDS011;410;48.954;9.474;2023-07-13T03:13:29;2.63;;;1.57;;
846;SDS011;410;48.954;9.474;2023-07-13T03:15:33;2.37;;;1.97;;
846;SDS011;410;48.954;9.474;2023-07-13T03:17:38;2.13;;;1.57;;
846;SDS011;410;48.954;9.474;2023-07-13T03:19:42;3.63;;;1.87;;
846;SDS011;410;48.954;9.474;2023-07-13T03:21:46;3.30;;;1.93;;
846;SDS011;410;48.954;9.474;2023-07-13T03:23:49;2.60;;;1.80;;
846;SDS011;410;48.954;9.474;2023-07-13T03:26:00;4.20;;;2.10;;
846;SDS011;410;48.954;9.474;2023-07-13T03:28:05;2.53;;;2.00;;
846;SDS011;410;48.954;9.474;2023-07-13T03:30:09;3.73;;;1.80;;
846;SDS011;410;48.954;9.474;2023-07-13T03:32:12;2.70;;;1.63;;
846;SDS011;410;48.954;9.474;2023-07-13T03:34:17;2.40;;;1.60;;
846;SDS011;410;48.954;9.474;2023-07-13T03:36:22;3.47;;;1.77;;
846;SDS011;410;48.954;9.474;2023-07-13T03:38:29;2.73;;;1.80;;
846;SDS011;410;48.954;9.474;2023-07-13T03:40:33;3.37;;;1.80;;
846;SDS011;410;48.954;9.474;2023-07-13T03:42:36;2.80;;;1.83;;
846;SDS011;410;48.954;9.474;2023-07-13T03:44:39;2.77;;;2.27;;
846;SDS011;410;48.954;9.474;2023-07-13T03:46:43;3.70;;;1.83;;
846;SDS011;410;48.954;9.474;2023-07-13T03:48:48;2.80;;;1.60;;
846;SDS011;410;48.954;9.474;2023-07-13T03:50:52;3.90;;;2.17;;
846;SDS011;410;48.954;9.474;2023-07-13T03:52:56;2.47;;;1.83;;
846;SDS011;410;48.954;9.474;2023-07-13T03:55:00;2.67;;;1.90;;
846;SDS011;410;48.954;9.474;2023-07-13T03:57:04;2.60;;;2.10;;
846;SDS011;410;48.954;9.474;2023-07-13T03:59:09;2.50;;;2.30;;
846;SDS011;410;48.954;9.474;2023-07-13T04:01:13;2.30;;;1.90;;
846;SDS011;410;48.954;9.474;2023-07-13T04:03:18;5.37;;;3.67;;
846;SDS011;410;48.954;9.474;2023-07-13T04:05:20;2.60;;;2.20;;
846;SDS011;410;48.954;9.474;2023-07-13T04:07:26;2.40;;;1.80;;
846;SDS011;410;48.954;9.474;2023-07-13T04:09:30;2.73;;;1.90;;
846;SDS011;410;48.954;9.474;2023-07-13T04:11:33;2.60;;;2.00;;
846;SDS011;410;48.954;9.474;2023-07-13T04:13:38;2.67;;;1.80;;
846;SDS011;410;48.954;9.474;2023-07-13T04:15:41;2.90;;;2.40;;
846;SDS011;410;48.954;9.474;2023-07-13T04:17:44;2.90;;;1.90;;
846;SDS011;410;48.954;9.474;2023-07-13T04:19:47;2.40;;;1.73;;
846;SDS011;410;48.954;9.474;2023-07-13T04:21:51;2.77;;;2.03;;
846;SDS011;410;48.954;9.474;2023-07-13T04:23:56;3.10;;;2.10;;
846;SDS011;410;48.954;9.474;2023-07-13T04:25:59;2.43;;;1.70;;
846;SDS011;410;48.954;9.474;2023-07-13T04:28:02;3.67;;;2.03;;
846;SDS011;410;48.954;9.474;2023-07-13T04:30:07;2.83;;;2.20;;
846;SDS011;410;48.954;9.474;2023-07-13T04:32:10;3.03;;;2.03;;
846;SDS011;410;48.954;9.474;2023-07-13T04:34:14;2.70;;;2.10;;
846;SDS011;410;48.954;9.474;2023-07-13T04:36:16;5.20;;;2.67;;
846;SDS011;410;48.954;9.474;2023-07-13T04:38:19;2.40;;;1.97;;
846;SDS011;410;48.954;9.474;2023-07-13T04:40:25;3.90;;;2.20;;
846;SDS011;410;48.954;9.474;2023-07-13T04:42:29;6.13;;;2.67;;
846;SDS011;410;48.954;9.474;2023-07-13T04:44:32;4.57;;;1.90;;
846;SDS011;410;48.954;9.474;2023-07-13T04:46:35;3.00;;;2.13;;
846;SDS011;410;48.954;9.474;2023-07-13T04:48:39;3.70;;;2.40;;
846;SDS011;410;48.954;9.474;2023-07-13T04:50:41;3.67;;;2.40;;
846;SDS011;410;48.954;9.474;2023-07-13T04:52:45;3.97;;;2.40;;
846;SDS011;410;48.954;9.474;2023-07-13T04:54:48;3.03;;;2.57;;
846;SDS011;410;48.954;9.474;2023-07-13T04:56:52;2.67;;;2.43;;
846;SDS011;410;48.954;9.474;2023-07-13T04:58:56;5.47;;;2.47;;
846;SDS011;410;48.954;9.474;2023-07-13T05:01:00;4.20;;;2.33;;
846;SDS011;410;48.954;9.474;2023-07-13T05:03:04;3.10;;;2.43;;
846;SDS011;410;48.954;9.474;2023-07-13T05:05:07;5.40;;;2.90;;
846;SDS011;410;48.954;9.474;2023-07-13T05:07:11;5.40;;;2.50;;
846;SDS011;410;48.954;9.474;2023-07-13T05:09:14;3.40;;;2.80;;
846;SDS011;410;48.954;9.474;2023-07-13T05:11:17;3.03;;;2.67;;
846;SDS011;410;48.954;9.474;2023-07-13T05:13:22;3.27;;;2.60;;
846;SDS011;410;48.954;9.474;2023-07-13T05:15:27;4.27;;;2.73;;
846;SDS011;410;48.954;9.474;2023-07-13T05:17:30;4.20;;;2.80;;
846;SDS011;410;48.954;9.474;2023-07-13T05:19:33;3.00;;;2.50;;
846;SDS011;410;48.954;9.474;2023-07-13T05:21:37;4.73;;;3.00;;
846;SDS011;410;48.954;9.474;2023-07-13T05:23:40;3.67;;;2.90;;
846;SDS011;410;48.954;9.474;2023-07-13T05:25:44;4.47;;;2.40;;
846;SDS011;410;48.954;9.474;2023-07-13T05:27:47;4.03;;;3.10;;
846;SDS011;410;48.954;9.474;2023-07-13T05:29:54;3.30;;;2.90;;
846;SDS011;410;48.954;9.474;2023-07-13T05:31:58;4.27;;;2.60;;
846;SDS011;410;48.954;9.474;2023-07-13T05:34:02;3.50;;;2.53;;
846;SDS011;410;48.954;9.474;2023-07-13T05:36:06;3.50;;;2.70;;
846;SDS011;410;48.954;9.474;2023-07-13T05:38:09;4.10;;;2.73;;
846;SDS011;410;48.954;9.474;2023-07-13T05:40:13;4.40;;;2.43;;
846;SDS011;410;48.954;9.474;2023-07-13T05:42:16;3.90;;;3.03;;
846;SDS011;410;48.954;9.474;2023-07-13T05:44:20;2.93;;;2.50;;
846;SDS011;410;48.954;9.474;2023-07-13T05:46:25;3.37;;;2.50;;
846;SDS011;410;48.954;9.474;2023-07-13T05:48:28;5.03;;;2.60;;
846;SDS011;410;48.954;9.474;2023-07-13T05:50:31;4.63;;;2.90;;
846;SDS011;410;48.954;9.474;2023-07-13T05:52:35;3.30;;;2.40;;
846;SDS011;410;48.954;9.474;2023-07-13T05:54:39;3.03;;;2.40;;
846;SDS011;410;48.954;9.474;2023-07-13T05:56:42;2.77;;;2.00;;
846;SDS011;410;48.954;9.474;2023-07-13T05:58:49;2.57;;;2.03;;
846;SDS011;410;48.954;9.474;2023-07-13T06:00:58;4.67;;;2.20;;
846;SDS011;410;48.954;9.474;2023-07-13T06:03:04;2.97;;;2.30;;
846;SDS011;410;48.954;9.474;2023-07-13T06:05:08;2.70;;;2.10;;
846;SDS011;410;48.954;9.474;2023-07-13T06:07:12;2.47;;;2.07;;
846;SDS011;410;48.954;9.474;2023-07-13T06:09:15;3.23;;;1.90;;
846;SDS011;410;48.954;9.474;2023-07-13T06:11:20;2.10;;;1.90;;
846;SDS011;410;48.954;9.474;2023-07-13T06:13:24;2.30;;;1.90;;
846;SDS011;410;48.954;9.474;2023-07-13T06:15:27;3.00;;;2.00;;
846;SDS011;410;48.954;9.474;2023-07-13T06:17:30;2.50;;;1.77;;
846;SDS011;410;48.954;9.474;2023-07-13T06:19:35;2.93;;;2.27;;
846;SDS011;410;48.954;9.474;2023-07-13T06:21:38;3.00;;;2.20;;
846;SDS011;410;48.954;9.474;2023-07-13T06:23:41;2.63;;;2.07;;
846;SDS011;410;48.954;9.474;2023-07-13T06:25:45;3.23;;;2.30;;
846;SDS011;410;48.954;9.474;2023-07-13T06:27:48;2.70;;;2.30;;
846;SDS011;410;48.954;9.474;2023-07-13T06:29:51;3.17;;;2.10;;
846;SDS011;410;48.954;9.474;2023-07-13T06:31:54;3.27;;;2.20;;
846;SDS011;410;48.954;9.474;2023-07-13T06:33:57;4.63;;;2.40;;
846;SDS011;410;48.954;9.474;2023-07-13T06:36:02;6.30;;;2.47;;
846;SDS011;410;48.954;9.474;2023-07-13T06:38:06;4.23;;;2.60;;
846;SDS011;410;48.954;9.474;2023-07-13T06:40:10;4.30;;;2.30;;
846;SDS011;410;48.954;9.474;2023-07-13T06:42:15;2.60;;;1.93;;
846;SDS011;410;48.954;9.474;2023-07-13T06:44:19;3.43;;;2.53;;
846;SDS011;410;48.954;9.474;2023-07-13T06:46:22;4.07;;;2.50;;
846;SDS011;410;48.954;9.474;2023-07-13T06:48:26;3.70;;;2.37;;
846;SDS011;410;48.954;9.474;2023-07-13T06:50:29;4.40;;;2.00;;
846;SDS011;410;48.954;9.474;2023-07-13T06:52:34;3.60;;;2.20;;
846;SDS011;410;48.954;9.474;2023-07-13T06:54:37;3.90;;;2.50;;
846;SDS011;410;48.954;9.474;2023-07-13T06:56:40;3.43;;;2.20;;
846;SDS011;410;48.954;9.474;2023-07-13T06:58:44;5.80;;;2.10;;
846;SDS011;410;48.954;9.474;2023-07-13T07:00:49;3.00;;;2.40;;
846;SDS011;410;48.954;9.474;2023-07-13T07:02:53;2.73;;;2.13;;
846;SDS011;410;48.954;9.474;2023-07-13T07:04:57;3.90;;;2.30;;
846;SDS011;410;48.954;9.474;2023-07-13T07:07:00;2.90;;;2.10;;
846;SDS011;410;48.954;9.474;2023-07-13T07:09:04;2.17;;;1.97;;
846;SDS011;410;48.954;9.474;2023-07-13T07:11:08;2.40;;;2.00;;
846;SDS011;410;48.954;9.474;2023-07-13T07:13:12;2.80;;;2.00;;
846;SDS011;410;48.954;9.474;2023-07-13T07:15:16;2.17;;;1.70;;
846;SDS011;410;48.954;9.474;2023-07-13T07:17:19;2.57;;;1.93;;
846;SDS011;410;48.954;9.474;2023-07-13T07:19:25;4.23;;;2.00;;
846;SDS011;410;48.954;9.474;2023-07-13T07:21:28;3.70;;;2.00;;
846;SDS011;410;48.954;9.474;2023-07-13T07:23:32;8.23;;;2.20;;
846;SDS011;410;48.954;9.474;2023-07-13T07:25:37;2.50;;;2.20;;
846;SDS011;410;48.954;9.474;2023-07-13T07:27:43;2.80;;;1.90;;
846;SDS011;410;48.954;9.474;2023-07-13T07:29:50;3.13;;;1.97;;
846;SDS011;410;48.954;9.474;2023-07-13T07:32:05;2.13;;;1.90;;
846;SDS011;410;48.954;9.474;2023-07-13T07:34:19;2.30;;;1.80;;
846;SDS011;410;48.954;9.474;2023-07-13T07:36:22;2.50;;;2.17;;
846;SDS011;410;48.954;9.474;2023-07-13T07:38:28;2.60;;;1.90;;
846;SDS011;410;48.954;9.474;2023-07-13T07:40:32;2.80;;;2.50;;
846;SDS011;410;48.954;9.474;2023-07-13T07:42:44;3.50;;;1.93;;
846;SDS011;410;48.954;9.474;2023-07-13T07:44:47;2.17;;;1.70;;
846;SDS011;410;48.954;9.474;2023-07-13T07:46:50;3.03;;;2.07;;
846;SDS011;410;48.954;9.474;2023-07-13T07:48:53;4.70;;;2.13;;
846;SDS011;410;48.954;9.474;2023-07-13T07:50:56;2.90;;;1.60;;
846;SDS011;410;48.954;9.474;2023-07-13T07:53:00;2.77;;;1.60;;
846;SDS011;410;48.954;9.474;2023-07-13T07:55:04;2.03;;;1.60;;
846;SDS011;410;48.954;9.474;2023-07-13T07:57:13;2.30;;;1.60;;
846;SDS011;410;48.954;9.474;2023-07-13T07:59:36;3.20;;;1.60;;
846;SDS011;410;48.954;9.474;2023-07-13T08:01:43;4.30;;;1.40;;
846;SDS011;410;48.954;9.474;2023-07-13T08:03:50;1.90;;;1.50;;
846;SDS011;410;48.954;9.474;2023-07-13T08:05:57;6.23;;;2.33;;
846;SDS011;410;48.954;9.474;2023-07-13T08:08:20;3.63;;;1.63;;
846;SDS011;410;48.954;9.474;2023-07-13T08:10:23;3.13;;;1.63;;
846;SDS011;410;48.954;9.474;2023-07-13T08:12:29;2.80;;;1.60;;
846;SDS011;410;48.954;9.474;2023-07-13T08:14:36;2.07;;;1.00;;
846;SDS011;410;48.954;9.474;2023-07-13T08:16:53;3.20;;;1.20;;
846;SDS011;410;48.954;9.474;2023-07-13T08:18:57;2.17;;;1.40;;
846;SDS011;410;48.954;9.474;2023-07-13T08:21:02;3.37;;;1.47;;
846;SDS011;410;48.954;9.474;2023-07-13T08:23:06;3.07;;;1.50;;
846;SDS011;410;48.954;9.474;2023-07-13T08:25:10;3.63;;;1.57;;
846;SDS011;410;48.954;9.474;2023-07-13T08:27:13;5.63;;;1.60;;
846;SDS011;410;48.954;9.474;2023-07-13T08:29:17;3.07;;;1.70;;
846;SDS011;410;48.954;9.474;2023-07-13T08:31:20;2.07;;;1.30;;
846;SDS011;410;48.954;9.474;2023-07-13T08:33:23;1.83;;;1.50;;
846;SDS011;410;48.954;9.474;2023-07-13T08:35:26;2.70;;;1.33;;
846;SDS011;410;48.954;9.474;2023-07-13T08:37:29;3.30;;;1.40;;
846;SDS011;410;48.954;9.474;2023-07-13T08:39:33;1.90;;;1.30;;
846;SDS011;410;48.954;9.474;2023-07-13T08:41:36;4.73;;;1.57;;
846;SDS011;410;48.954;9.474;2023-07-13T08:43:40;2.40;;;1.53;;
846;SDS011;410;48.954;9.474;2023-07-13T08:45:48;3.53;;;1.40;;
846;SDS011;410;48.954;9.474;2023-07-13T08:47:55;2.20;;;1.37;;
846;SDS011;410;48.954;9.474;2023-07-13T08:50:01;2.20;;;1.40;;
846;SDS011;410;48.954;9.474;2023-07-13T08:52:05;2.30;;;1.53;;
846;SDS011;410;48.954;9.474;2023-07-13T08:54:16;2.43;;;1.50;;
846;SDS011;410;48.954;9.474;2023-07-13T08:56:22;7.30;;;1.90;;
846;SDS011;410;48.954;9.474;2023-07-13T08:58:28;2.23;;;1.37;;
846;SDS011;410;48.954;9.474;2023-07-13T09:00:34;2.60;;;1.53;;
846;SDS011;410;48.954;9.474;2023-07-13T09:02:45;4.70;;;1.80;;
846;SDS011;410;48.954;9.474;2023-07-13T09:04:50;2.07;;;1.40;;
846;SDS011;410;48.954;9.474;2023-07-13T09:06:58;2.50;;;1.60;;
846;SDS011;410;48.954;9.474;2023-07-13T09:09:21;3.07;;;1.30;;
846;SDS011;410;48.954;9.474;2023-07-13T09:11:36;1.73;;;1.33;;
846;SDS011;410;48.954;9.474;2023-07-13T09:14:00;2.63;;;1.60;;
846;SDS011;410;48.954;9.474;2023-07-13T09:16:09;2.33;;;1.57;;
846;SDS011;410;48.954;9.474;2023-07-13T09:18:16;4.20;;;1.63;;
846;SDS011;410;48.954;9.474;2023-07-13T09:20:23;2.20;;;1.50;;
846;SDS011;410;48.954;9.474;2023-07-13T09:22:28;2.37;;;1.30;;
846;SDS011;410;48.954;9.474;2023-07-13T09:24:36;2.70;;;1.50;;
846;SDS011;410;48.954;9.474;2023-07-13T09:26:40;1.90;;;1.47;;
846;SDS011;410;48.954;9.474;2023-07-13T09:28:43;3.27;;;1.30;;
846;SDS011;410;48.954;9.474;2023-07-13T09:30:50;2.47;;;1.20;;
846;SDS011;410;48.954;9.474;2023-07-13T09:32:56;2.47;;;1.90;;
846;SDS011;410;48.954;9.474;2023-07-13T09:35:01;2.13;;;1.20;;
846;SDS011;410;48.954;9.474;2023-07-13T09:37:12;1.97;;;1.37;;
846;SDS011;410;48.954;9.474;2023-07-13T09:39:19;3.57;;;1.40;;
846;SDS011;410;48.954;9.474;2023-07-13T09:41:27;3.10;;;1.40;;
846;SDS011;410;48.954;9.474;2023-07-13T09:43:34;3.67;;;2.07;;
846;SDS011;410;48.954;9.474;2023-07-13T09:45:37;4.40;;;2.17;;
846;SDS011;410;48.954;9.474;2023-07-13T09:47:41;1.93;;;1.30;;
846;SDS011;410;48.954;9.474;2023-07-13T09:49:44;2.30;;;1.60;;
846;SDS011;410;48.954;9.474;2023-07-13T09:51:49;2.07;;;1.40;;
846;SDS011;410;48.954;9.474;2023-07-13T09:54:00;2.17;;;1.33;;
846;SDS011;410;48.954;9.474;2023-07-13T09:56:04;1.73;;;1.43;;
846;SDS011;410;48.954;9.474;2023-07-13T09:58:10;2.33;;;1.53;;
846;SDS011;410;48.954;9.474;2023-07-13T10:00:19;2.23;;;1.43;;
846;SDS011;410;48.954;9.474;2023-07-13T10:02:24;2.33;;;1.30;;
846;SDS011;410;48.954;9.474;2023-07-13T10:04:31;2.93;;;1.53;;
846;SDS011;410;48.954;9.474;2023-07-13T10:06:35;2.40;;;1.40;;
846;SDS011;410;48.954;9.474;2023-07-13T10:08:40;1.80;;;1.37;;
846;SDS011;410;48.954;9.474;2023-07-13T10:10:43;3.00;;;1.47;;
846;SDS011;410;48.954;9.474;2023-07-13T10:12:46;2.77;;;1.27;;
846;SDS011;410;48.954;9.474;2023-07-13T10:14:50;2.03;;;1.50;;
846;SDS011;410;48.954;9.474;2023-07-13T10:17:13;2.30;;;1.60;;
846;SDS011;410;48.954;9.474;2023-07-13T10:19:17;2.57;;;1.40;;
846;SDS011;410;48.954;9.474;2023-07-13T10:21:27;2.37;;;1.47;;
846;SDS011;410;48.954;9.474;2023-07-13T10:23:40;3.20;;;1.50;;
846;SDS011;410;48.954;9.474;2023-07-13T10:25:43;2.53;;;1.80;;
846;SDS011;410;48.954;9.474;2023-07-13T10:27:48;2.13;;;1.60;;
846;SDS011;410;48.954;9.474;2023-07-13T10:29:55;2.47;;;1.80;;
846;SDS011;410;48.954;9.474;2023-07-13T10:32:04;3.27;;;1.73;;
846;SDS011;410;48.954;9.474;2023-07-13T10:34:13;2.90;;;1.50;;
846;SDS011;410;48.954;9.474;2023-07-13T10:36:27;3.13;;;1.67;;
846;SDS011;410;48.954;9.474;2023-07-13T10:38:33;2.80;;;1.70;;
846;SDS011;410;48.954;9.474;2023-07-13T10:40:38;1.80;;;1.37;;
846;SDS011;410;48.954;9.474;2023-07-13T10:42:44;3.00;;;1.80;;
846;SDS011;410;48.954;9.474;2023-07-13T10:44:50;2.90;;;1.53;;
846;SDS011;410;48.954;9.474;2023-07-13T10:46:55;1.93;;;1.37;;
846;SDS011;410;48.954;9.474;2023-07-13T10:49:01;2.13;;;1.37;;
846;SDS011;410;48.954;9.474;2023-07-13T10:51:06;2.03;;;1.40;;
846;SDS011;410;48.954;9.474;2023-07-13T10:53:18;4.30;;;1.60;;
846;SDS011;410;48.954;9.474;2023-07-13T10:55:32;2.33;;;1.53;;
846;SDS011;410;48.954;9.474;2023-07-13T10:57:43;3.60;;;1.30;;
846;SDS011;410;48.954;9.474;2023-07-13T10:59:47;2.67;;;1.43;;
846;SDS011;410;48.954;9.474;2023-07-13T11:01:56;2.10;;;1.50;;
846;SDS011;410;48.954;9.474;2023-07-13T11:04:01;3.60;;;1.63;;
846;SDS011;410;48.954;9.474;2023-07-13T11:06:11;2.17;;;1.40;;
846;SDS011;410;48.954;9.474;2023-07-13T11:08:20;3.47;;;1.57;;
846;SDS011;410;48.954;9.474;2023-07-13T11:12:53;2.23;;;1.30;;
846;SDS011;410;48.954;9.474;2023-07-13T11:15:01;6.13;;;1.60;;
846;SDS011;410;48.954;9.474;2023-07-13T11:17:33;1.80;;;1.20;;
846;SDS011;410;48.954;9.474;2023-07-13T11:19:39;2.37;;;1.77;;
846;SDS011;410;48.954;9.474;2023-07-13T11:24:13;1.80;;;1.57;;
846;SDS011;410;48.954;9.474;2023-07-13T11:28:46;4.03;;;1.63;;
846;SDS011;410;48.954;9.474;2023-07-13T11:33:21;2.17;;;1.43;;
846;SDS011;410;48.954;9.474;2023-07-13T11:35:25;2.20;;;1.63;;
846;SDS011;410;48.954;9.474;2023-07-13T11:37:28;2.07;;;1.40;;
846;SDS011;410;48.954;9.474;2023-07-13T11:39:32;2.13;;;1.73;;
846;SDS011;410;48.954;9.474;2023-07-13T11:41:38;2.67;;;1.20;;
846;SDS011;410;48.954;9.474;2023-07-13T11:43:48;4.90;;;1.73;;
846;SDS011;410;48.954;9.474;2023-07-13T11:45:52;3.07;;;2.20;;
846;SDS011;410;48.954;9.474;2023-07-13T11:47:55;2.10;;;1.60;;
846;SDS011;410;48.954;9.474;2023-07-13T11:50:02;3.13;;;1.40;;
846;SDS011;410;48.954;9.474;2023-07-13T11:52:09;1.70;;;1.27;;
846;SDS011;410;48.954;9.474;2023-07-13T11:54:18;2.53;;;1.60;;
846;SDS011;410;48.954;9.474;2023-07-13T11:56:25;2.17;;;1.40;;
846;SDS011;410;48.954;9.474;2023-07-13T11:58:30;2.00;;;1.60;;
846;SDS011;410;48.954;9.474;2023-07-13T12:00:33;1.70;;;1.27;;
846;SDS011;410;48.954;9.474;2023-07-13T12:02:36;1.83;;;1.40;;
846;SDS011;410;48.954;9.474;2023-07-13T12:04:42;2.73;;;1.70;;
846;SDS011;410;48.954;9.474;2023-07-13T12:06:45;2.20;;;1.30;;
846;SDS011;410;48.954;9.474;2023-07-13T12:08:49;1.80;;;1.60;;
846;SDS011;410;48.954;9.474;2023-07-13T12:11:03;2.57;;;1.63;;
846;SDS011;410;48.954;9.474;2023-07-13T12:13:08;2.40;;;1.50;;
846;SDS011;410;48.954;9.474;2023-07-13T12:15:12;2.50;;;1.30;;
846;SDS011;410;48.954;9.474;2023-07-13T12:17:17;5.40;;;1.90;;
846;SDS011;410;48.954;9.474;2023-07-13T12:19:23;2.10;;;1.40;;
846;SDS011;410;48.954;9.474;2023-07-13T12:21:29;2.80;;;2.03;;
846;SDS011;410;48.954;9.474;2023-07-13T12:23:34;1.70;;;1.30;;
846;SDS011;410;48.954;9.474;2023-07-13T12:25:38;2.27;;;1.57;;
846;SDS011;410;48.954;9.474;2023-07-13T12:27:41;1.50;;;1.20;;
846;SDS011;410;48.954;9.474;2023-07-13T12:29:49;2.50;;;1.87;;
846;SDS011;410;48.954;9.474;2023-07-13T12:31:56;2.23;;;1.60;;
846;SDS011;410;48.954;9.474;2023-07-13T12:34:01;3.97;;;1.70;;
846;SDS011;410;48.954;9.474;2023-07-13T12:36:05;2.07;;;1.43;;
846;SDS011;410;48.954;9.474;2023-07-13T12:38:09;2.10;;;1.50;;
846;SDS011;410;48.954;9.474;2023-07-13T12:40:13;2.53;;;1.63;;
846;SDS011;410;48.954;9.474;2023-07-13T12:42:19;2.70;;;1.70;;
846;SDS011;410;48.954;9.474;2023-07-13T12:44:27;2.87;;;1.70;;
846;SDS011;410;48.954;9.474;2023-07-13T12:46:31;2.53;;;1.57;;
846;SDS011;410;48.954;9.474;2023-07-13T12:48:39;3.50;;;1.83;;
846;SDS011;410;48.954;9.474;2023-07-13T12:50:53;3.70;;;1.70;;
846;SDS011;410;48.954;9.474;2023-07-13T12:52:59;2.67;;;1.50;;
846;SDS011;410;48.954;9.474;2023-07-13T12:55:07;3.50;;;1.63;;
846;SDS011;410;48.954;9.474;2023-07-13T12:57:25;2.30;;;1.40;;
846;SDS011;410;48.954;9.474;2023-07-13T12:59:30;1.80;;;1.40;;
846;SDS011;410;48.954;9.474;2023-07-13T13:01:38;1.83;;;1.30;;
846;SDS011;410;48.954;9.474;2023-07-13T13:03:45;2.90;;;1.57;;
846;SDS011;410;48.954;9.474;2023-07-13T13:05:50;2.47;;;1.70;;
846;SDS011;410;48.954;9.474;2023-07-13T13:08:01;2.50;;;1.40;;
846;SDS011;410;48.954;9.474;2023-07-13T13:10:10;1.80;;;1.27;;
846;SDS011;410;48.954;9.474;2023-07-13T13:12:14;3.00;;;1.90;;
846;SDS011;410;48.954;9.474;2023-07-13T13:14:18;2.50;;;1.50;;
846;SDS011;410;48.954;9.474;2023-07-13T13:16:23;2.20;;;1.60;;
846;SDS011;410;48.954;9.474;2023-07-13T13:18:29;2.30;;;1.63;;
846;SDS011;410;48.954;9.474;2023-07-13T13:20:34;2.33;;;1.60;;
846;SDS011;410;48.954;9.474;2023-07-13T13:22:38;1.97;;;1.77;;
846;SDS011;410;48.954;9.474;2023-07-13T13:24:41;2.87;;;1.80;;
846;SDS011;410;48.954;9.474;2023-07-13T13:26:44;1.93;;;1.63;;
846;SDS011;410;48.954;9.474;2023-07-13T13:28:47;2.13;;;1.63;;
846;SDS011;410;48.954;9.474;2023-07-13T13:30:51;1.73;;;1.50;;
846;SDS011;410;48.954;9.474;2023-07-13T13:32:54;2.13;;;1.30;;
846;SDS011;410;48.954;9.474;2023-07-13T13:34:58;1.80;;;1.30;;